sensor_id;sensor_type;location;lat;lon;timestamp;pressure;altitude;pressure_sealevel;temperature;humidity
13013;BME280;22580;57.670;12.006;2023-05-09T00:00:46;102200.59;;;20.02;33.82
13013;BME280;22580;57.670;12.006;2023-05-09T00:03:13;102182.13;;;19.96;33.59
13013;BME280;22580;57.670;12.006;2023-05-09T00:05:40;102188.84;;;19.92;34.01
13013;BME280;22580;57.670;12.006;2023-05-09T00:08:09;102186.69;;;19.95;33.97
13013;BME280;22580;57.670;12.006;2023-05-09T00:10:36;102172.44;;;19.73;33.89
13013;BME280;22580;57.670;12.006;2023-05-09T00:13:03;102186.75;;;20.05;33.61
13013;BME280;22580;57.670;12.006;2023-05-09T00:15:31;102186.09;;;20.22;33.25
13013;BME280;22580;57.670;12.006;2023-05-09T00:17:58;102180.09;;;20.19;33.24
13013;BME280;22580;57.670;12.006;2023-05-09T00:20:25;102150.03;;;19.71;33.40
13013;BME280;22580;57.670;12.006;2023-05-09T00:22:52;102154.00;;;19.67;33.92
13013;BME280;22580;57.670;12.006;2023-05-09T00:25:21;102181.00;;;19.68;34.17
13013;BME280;22580;57.670;12.006;2023-05-09T00:27:48;102156.84;;;19.65;33.77
13013;BME280;22580;57.670;12.006;2023-05-09T00:30:15;102174.44;;;19.71;33.84
13013;BME280;22580;57.670;12.006;2023-05-09T00:32:42;102161.13;;;19.88;33.54
13013;BME280;22580;57.670;12.006;2023-05-09T00:35:09;102156.84;;;19.95;33.15
13013;BME280;22580;57.670;12.006;2023-05-09T00:37:36;102178.47;;;19.76;33.42
13013;BME280;22580;57.670;12.006;2023-05-09T00:40:04;102160.03;;;20.10;33.00
13013;BME280;22580;57.670;12.006;2023-05-09T00:42:33;102152.84;;;20.30;32.85
13013;BME280;22580;57.670;12.006;2023-05-09T00:45:01;102144.22;;;20.15;32.54
13013;BME280;22580;57.670;12.006;2023-05-09T00:47:29;102156.97;;;19.94;32.84
13013;BME280;22580;57.670;12.006;2023-05-09T00:49:56;102155.16;;;20.04;32.93
13013;BME280;22580;57.670;12.006;2023-05-09T00:52:24;102149.53;;;19.86;32.85
13013;BME280;22580;57.670;12.006;2023-05-09T00:54:52;102156.84;;;19.95;32.92
13013;BME280;22580;57.670;12.006;2023-05-09T00:57:20;102161.88;;;19.70;32.97
13013;BME280;22580;57.670;12.006;2023-05-09T00:59:48;102152.13;;;19.97;32.78
13013;BME280;22580;57.670;12.006;2023-05-09T01:02:16;102132.06;;;19.79;32.66
13013;BME280;22580;57.670;12.006;2023-05-09T01:04:44;102141.44;;;20.06;32.26
13013;BME280;22580;57.670;12.006;2023-05-09T01:07:18;102134.06;;;20.17;31.99
13013;BME280;22580;57.670;12.006;2023-05-09T01:09:55;102138.78;;;20.15;31.95
13013;BME280;22580;57.670;12.006;2023-05-09T01:12:30;102141.63;;;20.14;31.82
13013;BME280;22580;57.670;12.006;2023-05-09T01:15:06;102143.56;;;19.92;32.17
13013;BME280;22580;57.670;12.006;2023-05-09T01:17:39;102143.13;;;19.87;32.18
13013;BME280;22580;57.670;12.006;2023-05-09T01:20:17;102136.47;;;20.11;31.83
13013;BME280;22580;57.670;12.006;2023-05-09T01:22:51;102123.97;;;20.29;31.52
13013;BME280;22580;57.670;12.006;2023-05-09T01:28:34;102130.63;;;20.15;31.74
13013;BME280;22580;57.670;12.006;2023-05-09T01:31:05;102128.00;;;20.04;31.63
13013;BME280;22580;57.670;12.006;2023-05-09T01:33:37;102127.47;;;20.10;31.64
13013;BME280;22580;57.670;12.006;2023-05-09T01:36:08;102123.84;;;20.00;31.65
13013;BME280;22580;57.670;12.006;2023-05-09T01:38:39;102126.84;;;19.97;31.56
13013;BME280;22580;57.670;12.006;2023-05-09T01:41:08;102120.81;;;19.84;31.88
13013;BME280;22580;57.670;12.006;2023-05-09T01:43:37;102113.53;;;19.84;31.79
13013;BME280;22580;57.670;12.006;2023-05-09T01:46:05;102123.13;;;19.88;31.69
13013;BME280;22580;57.670;12.006;2023-05-09T01:48:35;102118.44;;;19.70;31.88
13013;BME280;22580;57.670;12.006;2023-05-09T01:51:03;102111.03;;;19.72;31.98
13013;BME280;22580;57.670;12.006;2023-05-09T01:53:31;102116.31;;;19.73;31.91
13013;BME280;22580;57.670;12.006;2023-05-09T01:56:01;102109.00;;;19.64;31.88
13013;BME280;22580;57.670;12.006;2023-05-09T01:58:31;102082.88;;;19.63;31.70
13013;BME280;22580;57.670;12.006;2023-05-09T02:01:00;102097.25;;;19.84;31.87
13013;BME280;22580;57.670;12.006;2023-05-09T02:03:29;102076.03;;;19.69;31.55
13013;BME280;22580;57.670;12.006;2023-05-09T02:05:58;102075.66;;;19.52;31.95
13013;BME280;22580;57.670;12.006;2023-05-09T02:08:27;102084.72;;;19.93;31.53
13013;BME280;22580;57.670;12.006;2023-05-09T02:10:54;102091.22;;;19.81;31.71
13013;BME280;22580;57.670;12.006;2023-05-09T02:13:21;102088.59;;;19.70;31.88
13013;BME280;22580;57.670;12.006;2023-05-09T02:15:48;102062.56;;;19.16;32.24
13013;BME280;22580;57.670;12.006;2023-05-09T02:18:15;102084.72;;;19.42;32.24
13013;BME280;22580;57.670;12.006;2023-05-09T02:20:44;102077.34;;;19.74;31.61
13013;BME280;22580;57.670;12.006;2023-05-09T02:23:11;102083.38;;;19.78;31.62
13013;BME280;22580;57.670;12.006;2023-05-09T02:25:38;102057.53;;;19.32;32.01
13013;BME280;22580;57.670;12.006;2023-05-09T02:28:06;102082.31;;;19.48;31.79
13013;BME280;22580;57.670;12.006;2023-05-09T02:30:39;102064.72;;;19.43;31.90
13013;BME280;22580;57.670;12.006;2023-05-09T02:33:09;102076.38;;;19.33;32.02
13013;BME280;22580;57.670;12.006;2023-05-09T02:35:38;102061.22;;;19.73;31.38
13013;BME280;22580;57.670;12.006;2023-05-09T02:38:09;102055.47;;;19.45;31.66
13013;BME280;22580;57.670;12.006;2023-05-09T02:40:37;102077.16;;;19.45;31.75
13013;BME280;22580;57.670;12.006;2023-05-09T02:43:04;102072.94;;;19.52;31.63
13013;BME280;22580;57.670;12.006;2023-05-09T02:45:31;102064.19;;;19.70;31.49
13013;BME280;22580;57.670;12.006;2023-05-09T02:47:58;102061.94;;;19.75;31.25
13013;BME280;22580;57.670;12.006;2023-05-09T02:50:26;102031.50;;;19.50;31.25
13013;BME280;22580;57.670;12.006;2023-05-09T02:52:53;102060.91;;;19.45;31.55
13013;BME280;22580;57.670;12.006;2023-05-09T02:55:21;102049.31;;;19.43;31.46
13013;BME280;22580;57.670;12.006;2023-05-09T02:57:48;102056.91;;;19.49;31.48
13013;BME280;22580;57.670;12.006;2023-05-09T03:00:16;102042.94;;;19.23;31.77
13013;BME280;22580;57.670;12.006;2023-05-09T03:02:44;102049.66;;;19.29;31.93
13013;BME280;22580;57.670;12.006;2023-05-09T03:05:11;102058.25;;;19.34;31.88
13013;BME280;22580;57.670;12.006;2023-05-09T03:07:38;102043.59;;;19.16;32.14
13013;BME280;22580;57.670;12.006;2023-05-09T03:10:06;102049.13;;;19.56;32.34
13013;BME280;22580;57.670;12.006;2023-05-09T03:12:34;102025.31;;;19.59;31.90
13013;BME280;22580;57.670;12.006;2023-05-09T03:15:03;102025.63;;;19.45;32.12
13013;BME280;22580;57.670;12.006;2023-05-09T03:17:30;102026.81;;;19.83;31.80
13013;BME280;22580;57.670;12.006;2023-05-09T03:19:58;102026.41;;;19.97;31.28
13013;BME280;22580;57.670;12.006;2023-05-09T03:22:24;102026.91;;;20.31;30.99
13013;BME280;22580;57.670;12.006;2023-05-09T03:24:51;102024.78;;;20.35;30.91
13013;BME280;22580;57.670;12.006;2023-05-09T03:27:18;102014.63;;;20.37;30.49
13013;BME280;22580;57.670;12.006;2023-05-09T03:29:47;102018.81;;;20.41;30.57
13013;BME280;22580;57.670;12.006;2023-05-09T03:32:14;102027.34;;;20.26;30.69
13013;BME280;22580;57.670;12.006;2023-05-09T03:34:41;101995.03;;;20.33;30.23
13013;BME280;22580;57.670;12.006;2023-05-09T03:37:08;101989.72;;;19.93;30.87
13013;BME280;22580;57.670;12.006;2023-05-09T03:39:35;102016.81;;;20.52;30.52
13013;BME280;22580;57.670;12.006;2023-05-09T03:42:02;102015.81;;;20.63;30.10
13013;BME280;22580;57.670;12.006;2023-05-09T03:44:29;102025.69;;;20.64;30.18
13013;BME280;22580;57.670;12.006;2023-05-09T03:46:57;102015.47;;;20.85;29.98
13013;BME280;22580;57.670;12.006;2023-05-09T03:49:24;102006.09;;;20.80;29.91
13013;BME280;22580;57.670;12.006;2023-05-09T03:51:51;102011.31;;;21.01;29.74
13013;BME280;22580;57.670;12.006;2023-05-09T03:54:18;102003.72;;;21.04;29.66
13013;BME280;22580;57.670;12.006;2023-05-09T03:56:45;102006.59;;;20.93;30.14
13013;BME280;22580;57.670;12.006;2023-05-09T03:59:12;102001.16;;;21.03;29.86
13013;BME280;22580;57.670;12.006;2023-05-09T04:01:40;101998.44;;;21.03;29.56
13013;BME280;22580;57.670;12.006;2023-05-09T04:04:09;102008.72;;;21.09;29.58
13013;BME280;22580;57.670;12.006;2023-05-09T04:06:38;101973.84;;;20.94;29.67
13013;BME280;22580;57.670;12.006;2023-05-09T04:09:05;101977.66;;;21.11;29.27
13013;BME280;22580;57.670;12.006;2023-05-09T04:11:33;101972.38;;;21.10;29.44
13013;BME280;22580;57.670;12.006;2023-05-09T04:14:00;101987.41;;;21.23;29.14
13013;BME280;22580;57.670;12.006;2023-05-09T04:16:31;101993.16;;;21.48;29.34
13013;BME280;22580;57.670;12.006;2023-05-09T04:18:58;101993.25;;;21.66;29.31
13013;BME280;22580;57.670;12.006;2023-05-09T04:21:26;101993.09;;;21.85;28.77
13013;BME280;22580;57.670;12.006;2023-05-09T04:23:53;101982.72;;;21.98;28.58
13013;BME280;22580;57.670;12.006;2023-05-09T04:26:21;101993.03;;;22.04;28.30
13013;BME280;22580;57.670;12.006;2023-05-09T04:28:51;101989.06;;;21.89;28.75
13013;BME280;22580;57.670;12.006;2023-05-09T04:31:18;101975.56;;;21.70;28.42
13013;BME280;22580;57.670;12.006;2023-05-09T04:33:45;101986.16;;;21.73;28.84
13013;BME280;22580;57.670;12.006;2023-05-09T04:36:12;101984.56;;;21.98;28.81
13013;BME280;22580;57.670;12.006;2023-05-09T04:38:41;101985.94;;;21.66;28.80
13013;BME280;22580;57.670;12.006;2023-05-09T04:41:08;101994.16;;;21.74;29.02
13013;BME280;22580;57.670;12.006;2023-05-09T04:43:35;101983.41;;;22.00;28.86
13013;BME280;22580;57.670;12.006;2023-05-09T04:46:03;101984.00;;;22.04;28.81
13013;BME280;22580;57.670;12.006;2023-05-09T04:48:30;101982.28;;;22.03;28.72
13013;BME280;22580;57.670;12.006;2023-05-09T04:50:57;101961.44;;;21.84;28.87
13013;BME280;22580;57.670;12.006;2023-05-09T04:53:24;101988.66;;;21.84;29.31
13013;BME280;22580;57.670;12.006;2023-05-09T04:55:54;101984.69;;;21.78;29.27
13013;BME280;22580;57.670;12.006;2023-05-09T04:58:22;101987.66;;;21.85;29.33
13013;BME280;22580;57.670;12.006;2023-05-09T05:00:50;101977.75;;;21.66;29.37
13013;BME280;22580;57.670;12.006;2023-05-09T05:03:17;101980.13;;;21.97;29.27
13013;BME280;22580;57.670;12.006;2023-05-09T05:05:44;101981.28;;;22.04;29.23
13013;BME280;22580;57.670;12.006;2023-05-09T05:08:11;101979.28;;;22.23;29.18
13013;BME280;22580;57.670;12.006;2023-05-09T05:10:38;101977.09;;;22.27;29.01
13013;BME280;22580;57.670;12.006;2023-05-09T05:13:06;101956.47;;;22.24;28.92
13013;BME280;22580;57.670;12.006;2023-05-09T05:15:33;101975.66;;;22.58;28.66
13013;BME280;22580;57.670;12.006;2023-05-09T05:18:00;101975.66;;;22.58;28.92
13013;BME280;22580;57.670;12.006;2023-05-09T05:20:27;101960.00;;;22.61;28.86
13013;BME280;22580;57.670;12.006;2023-05-09T05:22:55;101951.94;;;22.33;28.97
13013;BME280;22580;57.670;12.006;2023-05-09T05:25:23;101966.38;;;22.69;28.74
13013;BME280;22580;57.670;12.006;2023-05-09T05:27:50;101965.69;;;22.67;28.95
13013;BME280;22580;57.670;12.006;2023-05-09T05:30:19;101944.25;;;22.72;28.80
13013;BME280;22580;57.670;12.006;2023-05-09T05:32:46;101952.78;;;22.95;28.65
13013;BME280;22580;57.670;12.006;2023-05-09T05:35:13;101948.84;;;22.89;29.07
13013;BME280;22580;57.670;12.006;2023-05-09T05:37:41;101959.75;;;22.89;28.65
13013;BME280;22580;57.670;12.006;2023-05-09T05:40:09;101949.38;;;23.19;28.39
13013;BME280;22580;57.670;12.006;2023-05-09T05:42:36;101920.94;;;22.96;28.58
13013;BME280;22580;57.670;12.006;2023-05-09T05:45:04;101947.97;;;22.89;28.71
13013;BME280;22580;57.670;12.006;2023-05-09T05:47:33;101927.81;;;23.08;28.54
13013;BME280;22580;57.670;12.006;2023-05-09T05:50:02;101945.47;;;23.21;28.44
13013;BME280;22580;57.670;12.006;2023-05-09T05:52:31;101939.56;;;23.42;28.43
13013;BME280;22580;57.670;12.006;2023-05-09T05:54:58;101934.09;;;23.42;28.50
13013;BME280;22580;57.670;12.006;2023-05-09T05:57:25;101934.63;;;23.46;28.62
13013;BME280;22580;57.670;12.006;2023-05-09T05:59:52;101935.31;;;23.48;28.33
13013;BME280;22580;57.670;12.006;2023-05-09T06:02:19;101929.97;;;23.30;28.63
13013;BME280;22580;57.670;12.006;2023-05-09T06:04:48;101924.81;;;23.61;29.13
13013;BME280;22580;57.670;12.006;2023-05-09T06:07:16;101924.03;;;23.77;28.32
13013;BME280;22580;57.670;12.006;2023-05-09T06:09:43;101914.63;;;23.71;28.41
13013;BME280;22580;57.670;12.006;2023-05-09T06:12:10;101909.03;;;23.81;28.42
13013;BME280;22580;57.670;12.006;2023-05-09T06:14:40;101925.50;;;23.55;28.37
13013;BME280;22580;57.670;12.006;2023-05-09T06:17:08;101893.13;;;23.26;29.21
13013;BME280;22580;57.670;12.006;2023-05-09T06:19:35;101918.88;;;23.66;29.38
13013;BME280;22580;57.670;12.006;2023-05-09T06:22:04;101915.44;;;23.56;29.15
13013;BME280;22580;57.670;12.006;2023-05-09T06:24:31;101911.22;;;23.27;29.09
13013;BME280;22580;57.670;12.006;2023-05-09T06:26:58;101902.03;;;23.02;29.40
13013;BME280;22580;57.670;12.006;2023-05-09T06:29:25;101887.22;;;23.05;29.63
13013;BME280;22580;57.670;12.006;2023-05-09T06:31:52;101907.47;;;22.76;30.27
13013;BME280;22580;57.670;12.006;2023-05-09T06:34:19;101906.47;;;22.77;30.09
13013;BME280;22580;57.670;12.006;2023-05-09T06:36:46;101889.63;;;22.56;30.20
13013;BME280;22580;57.670;12.006;2023-05-09T06:39:15;101900.72;;;22.80;29.85
13013;BME280;22580;57.670;12.006;2023-05-09T06:41:42;101890.84;;;22.00;30.80
13013;BME280;22580;57.670;12.006;2023-05-09T06:44:09;101901.50;;;22.99;30.37
13013;BME280;22580;57.670;12.006;2023-05-09T06:46:36;101887.91;;;22.55;30.22
13013;BME280;22580;57.670;12.006;2023-05-09T06:49:03;101902.56;;;19.77;35.09
13013;BME280;22580;57.670;12.006;2023-05-09T06:51:30;101897.97;;;19.58;35.12
13013;BME280;22580;57.670;12.006;2023-05-09T06:53:57;101886.88;;;19.80;34.67
13013;BME280;22580;57.670;12.006;2023-05-09T06:56:25;101894.56;;;20.62;33.45
13013;BME280;22580;57.670;12.006;2023-05-09T06:58:53;101896.03;;;19.49;34.94
13013;BME280;22580;57.670;12.006;2023-05-09T07:01:20;101886.72;;;22.32;31.16
13013;BME280;22580;57.670;12.006;2023-05-09T07:03:47;101878.06;;;23.14;29.86
13013;BME280;22580;57.670;12.006;2023-05-09T07:06:16;101842.34;;;23.33;29.20
13013;BME280;22580;57.670;12.006;2023-05-09T07:08:43;101866.66;;;23.61;28.83
13013;BME280;22580;57.670;12.006;2023-05-09T07:11:10;101835.16;;;23.40;29.07
13013;BME280;22580;57.670;12.006;2023-05-09T07:13:39;101838.41;;;23.44;28.89
13013;BME280;22580;57.670;12.006;2023-05-09T07:16:06;101859.88;;;23.97;28.27
13013;BME280;22580;57.670;12.006;2023-05-09T07:18:33;101858.19;;;24.29;27.89
13013;BME280;22580;57.670;12.006;2023-05-09T07:21:00;101849.47;;;24.49;27.80
13013;BME280;22580;57.670;12.006;2023-05-09T07:23:27;101836.34;;;24.21;27.80
13013;BME280;22580;57.670;12.006;2023-05-09T07:25:57;101848.13;;;24.29;27.16
13013;BME280;22580;57.670;12.006;2023-05-09T07:28:24;101852.66;;;24.77;27.30
13013;BME280;22580;57.670;12.006;2023-05-09T07:30:55;101834.44;;;24.45;26.91
13013;BME280;22580;57.670;12.006;2023-05-09T07:33:22;101829.31;;;24.34;26.99
13013;BME280;22580;57.670;12.006;2023-05-09T07:35:50;101841.03;;;25.23;26.27
13013;BME280;22580;57.670;12.006;2023-05-09T07:38:17;101845.81;;;24.81;26.53
13013;BME280;22580;57.670;12.006;2023-05-09T07:40:45;101822.41;;;24.71;26.22
13013;BME280;22580;57.670;12.006;2023-05-09T07:43:12;101840.91;;;24.61;26.61
13013;BME280;22580;57.670;12.006;2023-05-09T07:45:40;101827.00;;;24.78;26.23
13013;BME280;22580;57.670;12.006;2023-05-09T07:48:09;101790.63;;;24.70;26.26
13013;BME280;22580;57.670;12.006;2023-05-09T07:50:35;101771.00;;;24.66;25.89
13013;BME280;22580;57.670;12.006;2023-05-09T07:53:02;101805.13;;;24.78;25.39
13013;BME280;22580;57.670;12.006;2023-05-09T07:55:29;101819.25;;;25.06;25.59
13013;BME280;22580;57.670;12.006;2023-05-09T07:57:56;101815.31;;;25.09;25.65
13013;BME280;22580;57.670;12.006;2023-05-09T08:00:24;101798.69;;;24.63;25.58
13013;BME280;22580;57.670;12.006;2023-05-09T08:02:51;101775.19;;;24.22;25.62
13013;BME280;22580;57.670;12.006;2023-05-09T08:05:19;101799.28;;;24.18;25.93
13013;BME280;22580;57.670;12.006;2023-05-09T08:07:46;101799.78;;;24.13;25.87
13013;BME280;22580;57.670;12.006;2023-05-09T08:10:13;101803.22;;;24.15;25.77
13013;BME280;22580;57.670;12.006;2023-05-09T08:12:40;101779.47;;;24.00;26.04
13013;BME280;22580;57.670;12.006;2023-05-09T08:15:08;101799.22;;;23.53;26.86
13013;BME280;22580;57.670;12.006;2023-05-09T08:17:35;101795.28;;;23.31;27.46
13013;BME280;22580;57.670;12.006;2023-05-09T08:20:02;101801.59;;;23.32;27.45
13013;BME280;22580;57.670;12.006;2023-05-09T08:22:31;101786.69;;;23.10;27.58
13013;BME280;22580;57.670;12.006;2023-05-09T08:24:58;101765.25;;;22.81;27.77
13013;BME280;22580;57.670;12.006;2023-05-09T08:27:27;101801.13;;;23.61;26.72
13013;BME280;22580;57.670;12.006;2023-05-09T08:29:53;101761.34;;;23.34;26.70
13013;BME280;22580;57.670;12.006;2023-05-09T08:32:20;101756.94;;;23.98;25.90
13013;BME280;22580;57.670;12.006;2023-05-09T08:34:47;101770.00;;;24.59;25.25
13013;BME280;22580;57.670;12.006;2023-05-09T08:37:15;101749.59;;;24.06;25.56
13013;BME280;22580;57.670;12.006;2023-05-09T08:39:43;101754.69;;;24.34;25.44
13013;BME280;22580;57.670;12.006;2023-05-09T08:42:11;101741.31;;;24.47;24.97
13013;BME280;22580;57.670;12.006;2023-05-09T08:44:40;101770.75;;;24.21;25.54
13013;BME280;22580;57.670;12.006;2023-05-09T08:47:07;101756.19;;;24.44;25.09
13013;BME280;22580;57.670;12.006;2023-05-09T08:49:35;101763.56;;;23.46;26.46
13013;BME280;22580;57.670;12.006;2023-05-09T08:52:02;101757.97;;;24.76;24.96
13013;BME280;22580;57.670;12.006;2023-05-09T08:54:30;101748.84;;;24.45;25.12
13013;BME280;22580;57.670;12.006;2023-05-09T08:56:59;101768.56;;;24.79;24.68
13013;BME280;22580;57.670;12.006;2023-05-09T08:59:27;101766.66;;;24.25;24.64
13013;BME280;22580;57.670;12.006;2023-05-09T09:01:54;101773.66;;;24.82;23.74
13013;BME280;22580;57.670;12.006;2023-05-09T09:04:21;101769.66;;;24.54;22.71
13013;BME280;22580;57.670;12.006;2023-05-09T09:06:48;101765.28;;;24.84;22.75
13013;BME280;22580;57.670;12.006;2023-05-09T09:09:17;101767.16;;;24.36;22.79
13013;BME280;22580;57.670;12.006;2023-05-09T09:11:47;101751.31;;;24.71;22.62
13013;BME280;22580;57.670;12.006;2023-05-09T09:14:22;101774.16;;;24.39;23.55
13013;BME280;22580;57.670;12.006;2023-05-09T09:16:50;101764.97;;;23.75;23.16
13013;BME280;22580;57.670;12.006;2023-05-09T09:19:19;101767.53;;;24.09;23.44
13013;BME280;22580;57.670;12.006;2023-05-09T09:21:49;101752.66;;;24.19;22.89
13013;BME280;22580;57.670;12.006;2023-05-09T09:24:21;101763.22;;;24.31;23.07
13013;BME280;22580;57.670;12.006;2023-05-09T09:26:49;101758.50;;;24.72;22.52
13013;BME280;22580;57.670;12.006;2023-05-09T09:29:19;101755.31;;;24.52;23.02
13013;BME280;22580;57.670;12.006;2023-05-09T09:31:51;101737.91;;;24.45;22.76
13013;BME280;22580;57.670;12.006;2023-05-09T09:34:20;101744.56;;;24.50;22.94
13013;BME280;22580;57.670;12.006;2023-05-09T09:36:47;101742.31;;;24.54;22.67
13013;BME280;22580;57.670;12.006;2023-05-09T09:39:14;101740.00;;;24.82;22.35
13013;BME280;22580;57.670;12.006;2023-05-09T09:41:41;101706.41;;;24.10;22.88
13013;BME280;22580;57.670;12.006;2023-05-09T09:44:12;101736.00;;;24.93;22.83
13013;BME280;22580;57.670;12.006;2023-05-09T09:46:47;101740.84;;;24.82;22.02
13013;BME280;22580;57.670;12.006;2023-05-09T09:49:16;101735.34;;;24.43;22.58
13013;BME280;22580;57.670;12.006;2023-05-09T09:51:43;101715.34;;;24.90;22.14
13013;BME280;22580;57.670;12.006;2023-05-09T09:54:11;101728.53;;;25.17;21.66
13013;BME280;22580;57.670;12.006;2023-05-09T09:56:42;101726.69;;;24.24;22.00
13013;BME280;22580;57.670;12.006;2023-05-09T09:59:11;101728.84;;;24.52;21.10
13013;BME280;22580;57.670;12.006;2023-05-09T10:01:57;101728.84;;;24.92;20.82
13013;BME280;22580;57.670;12.006;2023-05-09T10:04:27;101719.66;;;24.84;20.14
13013;BME280;22580;57.670;12.006;2023-05-09T10:06:55;101717.13;;;24.75;20.96
13013;BME280;22580;57.670;12.006;2023-05-09T10:09:22;101704.09;;;24.85;20.96
13013;BME280;22580;57.670;12.006;2023-05-09T10:11:50;101690.63;;;24.75;20.91
13013;BME280;22580;57.670;12.006;2023-05-09T10:14:19;101669.13;;;25.03;20.91
13013;BME280;22580;57.670;12.006;2023-05-09T10:16:48;101702.16;;;25.02;20.76
13013;BME280;22580;57.670;12.006;2023-05-09T10:19:19;101687.38;;;25.34;20.93
13013;BME280;22580;57.670;12.006;2023-05-09T10:21:51;101691.75;;;25.20;20.95
13013;BME280;22580;57.670;12.006;2023-05-09T10:24:25;101672.38;;;25.07;21.78
13013;BME280;22580;57.670;12.006;2023-05-09T10:26:58;101698.00;;;25.29;21.03
13013;BME280;22580;57.670;12.006;2023-05-09T10:29:31;101702.22;;;26.00;20.69
13013;BME280;22580;57.670;12.006;2023-05-09T10:32:04;101689.97;;;25.73;20.79
13013;BME280;22580;57.670;12.006;2023-05-09T10:34:39;101690.75;;;25.82;21.20
13013;BME280;22580;57.670;12.006;2023-05-09T10:37:07;101685.28;;;25.82;20.76
13013;BME280;22580;57.670;12.006;2023-05-09T10:39:35;101651.28;;;26.05;21.04
13013;BME280;22580;57.670;12.006;2023-05-09T10:42:03;101678.72;;;26.35;20.65
13013;BME280;22580;57.670;12.006;2023-05-09T10:44:31;101662.41;;;26.63;20.30
13013;BME280;22580;57.670;12.006;2023-05-09T10:46:59;101662.63;;;26.47;20.08
13013;BME280;22580;57.670;12.006;2023-05-09T10:49:27;101655.44;;;26.16;20.62
13013;BME280;22580;57.670;12.006;2023-05-09T10:51:55;101662.00;;;26.81;20.31
13013;BME280;22580;57.670;12.006;2023-05-09T10:54:26;101653.88;;;27.08;19.98
13013;BME280;22580;57.670;12.006;2023-05-09T10:56:54;101661.28;;;26.93;19.49
13013;BME280;22580;57.670;12.006;2023-05-09T10:59:32;101637.34;;;26.87;19.77
13013;BME280;22580;57.670;12.006;2023-05-09T11:02:00;101653.91;;;26.94;20.35
13013;BME280;22580;57.670;12.006;2023-05-09T11:04:29;101646.09;;;27.12;20.13
13013;BME280;22580;57.670;12.006;2023-05-09T11:06:58;101642.09;;;25.69;21.14
13013;BME280;22580;57.670;12.006;2023-05-09T11:09:28;101633.16;;;25.52;21.52
13013;BME280;22580;57.670;12.006;2023-05-09T11:12:00;101663.44;;;25.13;22.13
13013;BME280;22580;57.670;12.006;2023-05-09T11:14:37;101640.84;;;26.96;20.47
13013;BME280;22580;57.670;12.006;2023-05-09T11:17:06;101636.16;;;27.11;20.25
13013;BME280;22580;57.670;12.006;2023-05-09T11:19:34;101636.81;;;25.82;21.26
13013;BME280;22580;57.670;12.006;2023-05-09T11:22:11;101646.06;;;25.21;22.29
13013;BME280;22580;57.670;12.006;2023-05-09T11:24:39;101644.03;;;25.60;22.07
13013;BME280;22580;57.670;12.006;2023-05-09T11:27:14;101647.28;;;25.41;22.67
13013;BME280;22580;57.670;12.006;2023-05-09T11:29:45;101639.97;;;25.33;22.69
13013;BME280;22580;57.670;12.006;2023-05-09T11:32:15;101640.59;;;26.55;21.50
13013;BME280;22580;57.670;12.006;2023-05-09T11:34:43;101642.66;;;26.23;21.58
13013;BME280;22580;57.670;12.006;2023-05-09T11:37:14;101629.44;;;26.12;21.19
13013;BME280;22580;57.670;12.006;2023-05-09T11:39:55;101633.31;;;26.03;21.48
13013;BME280;22580;57.670;12.006;2023-05-09T11:42:24;101645.06;;;27.13;21.09
13013;BME280;22580;57.670;12.006;2023-05-09T11:44:53;101608.88;;;26.67;21.57
13013;BME280;22580;57.670;12.006;2023-05-09T11:47:20;101611.78;;;27.23;20.73
13013;BME280;22580;57.670;12.006;2023-05-09T11:49:50;101624.66;;;27.22;20.73
13013;BME280;22580;57.670;12.006;2023-05-09T11:52:19;101614.16;;;27.26;19.58
13013;BME280;22580;57.670;12.006;2023-05-09T11:54:46;101584.75;;;27.48;19.35
13013;BME280;22580;57.670;12.006;2023-05-09T11:57:13;101610.22;;;27.91;19.33
13013;BME280;22580;57.670;12.006;2023-05-09T11:59:42;101610.50;;;27.68;19.02
13013;BME280;22580;57.670;12.006;2023-05-09T12:02:10;101611.78;;;26.44;19.62
13013;BME280;22580;57.670;12.006;2023-05-09T12:04:37;101596.81;;;27.25;18.72
13013;BME280;22580;57.670;12.006;2023-05-09T12:07:04;101601.47;;;26.46;19.69
13013;BME280;22580;57.670;12.006;2023-05-09T12:09:34;101614.75;;;27.70;18.91
13013;BME280;22580;57.670;12.006;2023-05-09T12:12:07;101612.47;;;25.12;20.95
13013;BME280;22580;57.670;12.006;2023-05-09T12:14:36;101602.97;;;26.49;20.14
13013;BME280;22580;57.670;12.006;2023-05-09T12:17:03;101594.81;;;27.62;18.49
13013;BME280;22580;57.670;12.006;2023-05-09T12:19:30;101596.41;;;23.69;22.09
13013;BME280;22580;57.670;12.006;2023-05-09T12:21:59;101605.06;;;24.98;20.68
13013;BME280;22580;57.670;12.006;2023-05-09T12:24:27;101581.50;;;25.49;20.96
13013;BME280;22580;57.670;12.006;2023-05-09T12:26:57;101590.78;;;26.51;18.76
13013;BME280;22580;57.670;12.006;2023-05-09T12:29:24;101569.75;;;25.26;18.82
13013;BME280;22580;57.670;12.006;2023-05-09T12:31:53;101581.25;;;26.03;19.91
13013;BME280;22580;57.670;12.006;2023-05-09T12:34:21;101571.47;;;25.41;19.98
13013;BME280;22580;57.670;12.006;2023-05-09T12:36:48;101577.16;;;27.50;18.09
13013;BME280;22580;57.670;12.006;2023-05-09T12:39:16;101578.91;;;27.85;17.96
13013;BME280;22580;57.670;12.006;2023-05-09T12:41:46;101567.53;;;27.95;17.39
13013;BME280;22580;57.670;12.006;2023-05-09T12:44:24;101574.97;;;28.01;17.85
13013;BME280;22580;57.670;12.006;2023-05-09T12:47:00;101569.31;;;27.68;17.91
13013;BME280;22580;57.670;12.006;2023-05-09T12:49:31;101562.38;;;27.79;18.28